Time;durP1;ratioP1;P1;durP2;ratioP2;P2;SDS_P1;SDS_P2;PMS_P1;PMS_P2;Temp;Humidity;BMP_temperature;BMP_pressure;BME280_temperature;BME280_humidity;BME280_pressure;Samples;Min_cycle;Max_cycle;Signal;HPM_P1;HPM_P2
2022/04/12 00:00:19;;;;;;;9.18;1.42;;;;;;;0.76;100.00;101777.03;5406794;23;20078;-83
2022/04/12 00:02:45;;;;;;;11.95;1.73;;;;;;;0.75;100.00;101772.72;4980317;28;20050;-82
2022/04/12 00:05:11;;;;;;;9.00;1.27;;;;;;;0.78;100.00;101767.19;4969357;28;20040;-82
2022/04/12 00:10:14;;;;;;;11.70;1.70;;;;;;;-1.19;100.00;101476.16;5281948;23;20032;-82
2022/04/12 00:12:40;;;;;;;9.13;1.45;;;;;;;0.69;100.00;101766.03;4961451;28;20032;-82
2022/04/12 00:15:07;;;;;;;11.93;1.40;;;;;;;0.72;100.00;101779.06;4961231;28;20051;-83
2022/04/12 00:20:18;;;;;;;8.30;1.70;;;;;;;0.70;100.00;101775.69;4957304;28;20027;-82
2022/04/12 00:22:43;;;;;;;12.75;1.30;;;;;;;0.52;100.00;101754.03;4942276;28;20036;-82
2022/04/12 00:25:10;;;;;;;8.35;1.10;;;;;;;0.55;100.00;101774.16;4943809;28;20039;-82
2022/04/12 00:32:46;;;;;;;9.07;1.35;;;;;;;-1.36;100.00;101487.00;5583741;23;20087;-81
2022/04/12 00:35:12;;;;;;;9.73;1.50;;;;;;;0.51;100.00;101788.56;4960994;28;20083;-83
2022/04/12 00:37:37;;;;;;;9.45;1.80;;;;;;;0.49;100.00;101786.00;4957077;28;20020;-83
2022/04/12 00:45:14;;;;;;;7.05;1.65;;;;;;;0.47;100.00;101790.59;5476562;23;20036;-81
2022/04/12 00:47:39;;;;;;;7.70;1.50;;;;;;;0.38;100.00;101791.25;4938076;28;20113;-84
2022/04/12 00:52:47;;;;;;;7.82;1.63;;;;;;;0.20;100.00;101782.81;5831048;23;20052;-83
2022/04/12 00:55:12;;;;;;;14.05;1.77;;;;;;;0.28;100.00;101798.16;4941562;28;20012;-83
2022/04/12 00:57:39;;;;;;;10.48;2.00;;;;;;;0.20;100.00;101798.69;4941059;28;20032;-82
2022/04/12 01:00:07;;;;;;;13.23;1.63;;;;;;;0.14;100.00;101804.41;4939760;28;20040;-83
2022/04/12 01:02:33;;;;;;;11.80;1.60;;;;;;;0.06;100.00;101786.41;4956357;28;20048;-82
2022/04/12 01:04:59;;;;;;;12.55;1.50;;;;;;;0.25;100.00;101807.13;4941154;28;20099;-83
2022/04/12 01:07:26;;;;;;;10.48;1.98;;;;;;;0.22;100.00;101812.66;4941152;28;20084;-82
2022/04/12 01:09:52;;;;;;;12.60;1.45;;;;;;;0.18;100.00;101806.72;4941453;28;20012;-83
2022/04/12 01:12:21;;;;;;;7.95;1.50;;;;;;;0.04;100.00;101792.78;4941774;28;20020;-81
2022/04/12 01:27:42;;;;;;;16.13;2.33;;;;;;;0.09;100.00;101811.81;5426655;23;20070;-82
2022/04/12 01:30:08;;;;;;;11.30;1.85;;;;;;;-0.01;100.00;101799.22;4985574;28;20027;-82
2022/04/12 01:32:33;;;;;;;11.30;1.75;;;;;;;0.11;100.00;101817.84;4981558;28;20011;-82
2022/04/12 01:34:59;;;;;;;10.43;1.85;;;;;;;0.13;100.00;101822.09;4985652;28;20030;-83
2022/04/12 01:37:25;;;;;;;12.15;1.67;;;;;;;0.08;100.00;101818.91;4985666;28;20038;-82
2022/04/12 01:39:50;;;;;;;11.13;2.40;;;;;;;-0.05;100.00;101807.47;4985783;28;20034;-82
2022/04/12 01:42:15;;;;;;;14.80;1.92;;;;;;;0.07;100.00;101819.03;4972226;28;20015;-83
2022/04/12 01:44:41;;;;;;;11.35;2.00;;;;;;;0.04;100.00;101820.06;4964311;28;20015;-83
2022/04/12 01:47:06;;;;;;;10.43;2.05;;;;;;;-0.02;100.00;101834.56;4966064;28;20035;-83
2022/04/12 01:49:32;;;;;;;12.57;2.30;;;;;;;-0.08;100.00;101829.69;4965248;28;20035;-85
2022/04/12 01:52:01;;;;;;;14.30;1.95;;;;;;;-0.19;100.00;101816.38;4966355;28;20095;-83
2022/04/12 01:54:28;;;;;;;12.32;2.20;;;;;;;-0.20;100.00;101832.31;4949713;28;20075;-83
2022/04/12 01:56:53;;;;;;;10.20;1.80;;;;;;;-0.18;100.00;101827.78;4966361;28;20016;-82
2022/04/12 01:59:18;;;;;;;16.98;2.35;;;;;;;-0.12;100.00;101830.84;4955640;29;20087;-82
2022/04/12 02:01:44;;;;;;;10.50;2.08;;;;;;;-0.24;100.00;101815.81;4961517;28;20046;-83
2022/04/12 02:04:09;;;;;;;12.63;2.13;;;;;;;-0.21;100.00;101826.19;4965987;28;20012;-82
2022/04/12 02:14:20;;;;;;;13.30;2.22;;;;;;;-0.34;100.00;101839.38;5473277;23;20068;-82
2022/04/12 02:16:45;;;;;;;25.83;3.45;;;;;;;-0.42;100.00;101846.16;4985219;28;20035;-81
2022/04/12 02:19:11;;;;;;;17.73;2.60;;;;;;;-0.45;100.00;101847.19;4981331;28;20034;-82
2022/04/12 02:21:36;;;;;;;9.57;2.53;;;;;;;-0.59;100.00;101837.53;4966359;28;20032;-82
2022/04/12 02:24:02;;;;;;;14.35;2.58;;;;;;;-0.53;100.00;101847.72;4965596;28;20039;-82
2022/04/12 02:26:27;;;;;;;13.95;2.55;;;;;;;-0.52;100.00;101852.06;4961754;28;20020;-83
2022/04/12 02:59:31;;;;;;;13.50;4.20;;;;;;;-0.47;100.00;101868.44;6054184;23;20026;31
2022/04/12 03:01:56;;;;;;;13.70;3.50;;;;;;;-0.54;100.00;101876.88;4941544;29;20051;-83
2022/04/12 03:04:22;;;;;;;16.15;3.33;;;;;;;-0.54;100.00;101867.16;4942874;29;20032;-83
2022/04/12 03:09:22;;;;;;;19.20;4.13;;;;;;;-0.47;100.00;101852.56;5290748;23;20051;-82
2022/04/12 03:11:48;;;;;;;13.38;3.53;;;;;;;-0.40;100.00;101862.75;4975821;28;20092;-82
2022/04/12 03:14:13;;;;;;;17.33;3.53;;;;;;;-0.37;100.00;101868.69;4957371;28;20019;-83
2022/04/12 03:16:39;;;;;;;12.77;2.92;;;;;;;-0.40;100.00;101862.75;4965825;28;20019;-82
2022/04/12 03:19:04;;;;;;;15.98;2.75;;;;;;;-0.50;100.00;101859.88;4958483;28;20036;-82
2022/04/12 03:21:29;;;;;;;13.75;3.33;;;;;;;-0.55;100.00;101869.91;4959876;28;20030;-82
2022/04/12 03:23:55;;;;;;;20.70;3.40;;;;;;;-0.56;100.00;101874.34;4957666;28;20031;-82
2022/04/12 04:05:08;;;;;;;22.08;3.92;;;;;;;0.15;100.00;101891.63;5972534;23;20987;-80
2022/04/12 04:10:09;;;;;;;16.80;3.83;;;;;;;-0.65;100.00;101805.38;5560773;23;20059;-83
2022/04/12 04:22:55;;;;;;;15.63;4.05;;;;;;;0.00;100.00;101890.03;5570410;23;20048;-85
2022/04/12 04:27:56;;;;;;;16.60;3.78;;;;;;;-0.03;100.00;101885.81;5795788;23;20071;-84
2022/04/12 04:43:17;;;;;;;14.93;3.53;;;;;;;1.11;100.00;101885.78;5468185;23;20051;-81
2022/04/12 04:48:17;;;;;;;13.98;3.45;;;;;;;1.95;100.00;101897.25;5893056;23;20056;-80
2022/04/12 04:50:43;;;;;;;17.70;3.28;;;;;;;2.63;100.00;101899.06;4925388;29;20036;-80
2022/04/12 04:55:43;;;;;;;12.77;3.28;;;;;;;3.65;100.00;101903.22;5193658;23;20055;-80
2022/04/12 05:08:21;;;;;;;13.90;3.17;;;;;;;5.16;100.00;101902.63;4898618;29;20044;-80
2022/04/12 05:10:46;;;;;;;11.95;3.15;;;;;;;5.33;100.00;101887.81;4920690;29;20116;-80
2022/04/12 05:13:12;;;;;;;21.17;3.55;;;;;;;5.53;100.00;101894.00;4906980;29;20065;-81
2022/04/12 05:15:37;;;;;;;15.23;3.30;;;;;;;5.98;100.00;101919.34;4889446;29;20025;-81
2022/04/12 05:18:03;;;;;;;15.63;3.65;;;;;;;6.33;100.00;101897.34;4905577;29;20041;-82
2022/04/12 05:20:29;;;;;;;21.63;3.13;;;;;;;6.48;100.00;101916.44;4900465;29;20355;-79
2022/04/12 05:22:54;;;;;;;15.68;3.50;;;;;;;6.79;100.00;101922.41;4891289;29;20033;-79
2022/04/12 05:25:20;;;;;;;15.85;3.60;;;;;;;7.00;100.00;101914.13;4891374;29;20415;-79
2022/04/12 05:27:45;;;;;;;20.38;3.28;;;;;;;7.30;100.00;101923.69;4900211;29;20041;-79
2022/04/12 05:30:13;;;;;;;16.38;3.20;;;;;;;7.41;100.00;101925.31;4885114;29;20042;-79
2022/04/12 05:32:38;;;;;;;17.45;3.97;;;;;;;7.64;100.00;101913.16;4903053;29;20121;-80
2022/04/12 05:35:05;;;;;;;18.25;4.03;;;;;;;7.87;100.00;101931.47;4905169;29;20029;-79
2022/04/12 05:37:31;;;;;;;26.27;3.63;;;;;;;7.71;100.00;101927.63;4900783;29;20451;-79
2022/04/12 05:39:57;;;;;;;25.67;3.90;;;;;;;6.69;100.00;101930.47;4902090;29;20047;-79
2022/04/12 05:42:23;;;;;;;21.90;4.13;;;;;;;5.74;100.00;101938.44;4906445;29;20029;-79
2022/04/12 05:44:49;;;;;;;18.27;3.85;;;;;;;5.31;100.00;101942.31;4903027;29;20048;-78
2022/04/12 05:47:14;;;;;;;23.17;5.18;;;;;;;5.03;100.00;101934.06;4903278;29;20032;-79
2022/04/12 05:49:39;;;;;;;17.23;4.88;;;;;;;4.98;100.00;101935.47;4902727;29;20034;-79
2022/04/12 05:52:06;;;;;;;22.67;4.47;;;;;;;5.04;100.00;101946.44;4904055;29;20041;-79
2022/04/12 05:54:31;;;;;;;22.15;4.45;;;;;;;5.08;100.00;101953.19;4902871;29;20072;-79
2022/04/12 05:56:57;;;;;;;29.77;4.82;;;;;;;5.13;100.00;101942.97;4896925;29;20040;-79
2022/04/12 05:59:22;;;;;;;22.48;4.32;;;;;;;5.17;100.00;101924.84;4868035;29;20040;-79
2022/04/12 06:01:48;;;;;;;17.52;4.20;;;;;;;5.35;100.00;101952.56;4886400;29;20656;-79
2022/04/12 06:04:14;;;;;;;24.10;4.60;;;;;;;5.39;100.00;101955.78;4910301;29;20033;-78
2022/04/12 06:06:41;;;;;;;16.60;3.97;;;;;;;5.55;100.00;101966.78;4907102;29;20383;-79
2022/04/12 06:09:07;;;;;;;22.00;4.00;;;;;;;5.60;100.00;101963.72;4903553;29;20032;-78
2022/04/12 06:11:33;;;;;;;19.88;4.05;;;;;;;5.67;100.00;101972.03;4901059;29;20039;-78
2022/04/12 06:13:58;;;;;;;24.30;5.13;;;;;;;5.60;100.00;101972.56;4908095;29;21238;-79
2022/04/12 06:16:24;;;;;;;21.92;5.18;;;;;;;5.56;100.00;101960.50;4899419;29;20572;-79
2022/04/12 06:18:50;;;;;;;26.17;8.00;;;;;;;5.63;100.00;101980.31;4907333;29;20081;-79
2022/04/12 06:21:15;;;;;;;30.38;9.40;;;;;;;5.70;100.00;101979.75;4889045;29;20028;-78
2022/04/12 06:23:40;;;;;;;28.70;7.88;;;;;;;5.80;100.00;101975.28;4906031;29;20386;-79
2022/04/12 06:26:06;;;;;;;30.55;6.55;;;;;;;5.98;100.00;101983.47;4891328;29;20045;-79
2022/04/12 06:28:32;;;;;;;20.88;7.53;;;;;;;6.16;100.00;101987.13;4885998;29;20048;-78
2022/04/12 06:30:59;;;;;;;28.25;7.65;;;;;;;6.10;100.00;101969.00;4901917;29;20119;-80
2022/04/12 06:33:25;;;;;;;28.73;5.95;;;;;;;6.20;100.00;101987.69;4922311;29;20056;-80
2022/04/12 06:35:51;;;;;;;25.98;4.63;;;;;;;6.17;100.00;101971.94;4931124;29;20032;-78
2022/04/12 06:38:18;;;;;;;22.55;4.55;;;;;;;6.44;100.00;102000.59;4912577;29;20032;-79
2022/04/12 06:40:46;;;;;;;25.75;4.63;;;;;;;6.46;100.00;101982.59;4907324;29;20028;-79
2022/04/12 06:43:12;;;;;;;19.42;4.22;;;;;;;6.51;100.00;101985.66;4905611;29;21692;-78
2022/04/12 06:45:38;;;;;;;25.88;4.97;;;;;;;6.63;100.00;102002.41;4892567;29;20503;-79
2022/04/12 06:48:04;;;;;;;22.27;4.30;;;;;;;6.78;100.00;101998.28;4892632;29;20056;-78
2022/04/12 06:50:29;;;;;;;20.23;4.03;;;;;;;6.94;100.00;102001.19;4921113;29;20032;-79
2022/04/12 06:52:57;;;;;;;23.08;3.70;;;;;;;6.92;100.00;102011.22;4908418;29;20367;-79
2022/04/12 06:55:23;;;;;;;26.17;4.38;;;;;;;6.99;100.00;102012.31;4906212;29;20044;-79
2022/04/12 06:57:48;;;;;;;26.48;3.75;;;;;;;7.14;100.00;102006.47;4901349;29;20040;-79
2022/04/12 07:00:16;;;;;;;25.52;3.92;;;;;;;7.23;100.00;102011.78;4903348;29;20328;-78
2022/04/12 07:02:42;;;;;;;24.98;3.95;;;;;;;7.29;100.00;102002.34;4901981;29;20115;-79
2022/04/12 07:05:08;;;;;;;22.00;4.35;;;;;;;7.45;100.00;102007.88;4895015;29;20506;-79
2022/04/12 07:07:37;;;;;;;21.67;3.83;;;;;;;7.61;100.00;102017.09;4886753;29;20053;-78
2022/04/12 07:10:08;;;;;;;22.98;3.35;;;;;;;7.71;100.00;102015.19;4898951;29;20493;-78
2022/04/12 07:12:35;;;;;;;17.67;2.85;;;;;;;7.95;100.00;102018.16;4901272;29;20455;-79
2022/04/12 07:15:01;;;;;;;15.93;2.53;;;;;;;8.10;100.00;102013.09;4900753;29;20091;-79
2022/04/12 07:17:26;;;;;;;19.88;3.00;;;;;;;8.21;100.00;102010.19;4899020;29;20119;-79
2022/04/12 07:19:52;;;;;;;15.70;3.03;;;;;;;8.29;100.00;102000.53;4900128;29;20088;-78
2022/04/12 07:22:17;;;;;;;21.45;3.30;;;;;;;8.43;100.00;102014.25;4891676;29;20067;-79
2022/04/12 07:24:43;;;;;;;18.20;2.70;;;;;;;8.39;100.00;102007.50;4894303;29;20039;-79
2022/04/12 07:27:08;;;;;;;14.45;2.38;;;;;;;8.24;100.00;101976.84;4892936;29;20419;-79
2022/04/12 07:29:34;;;;;;;9.35;2.60;;;;;;;8.61;100.00;102024.09;4892873;29;20358;-78
2022/04/12 07:32:00;;;;;;;11.88;2.70;;;;;;;8.64;100.00;102013.91;4883229;29;20052;-79
2022/04/12 07:34:25;;;;;;;12.82;2.45;;;;;;;8.56;100.00;102011.16;4898971;29;20164;-78
2022/04/12 07:36:53;;;;;;;11.77;2.50;;;;;;;8.64;100.00;102018.41;4897681;29;20036;-78
2022/04/12 07:39:23;;;;;;;14.35;2.08;;;;;;;8.66;100.00;101998.47;4882386;29;20032;-79
2022/04/12 07:41:51;;;;;;;11.23;1.92;;;;;;;8.95;100.00;102024.19;4913579;29;20024;-79
2022/04/12 07:44:17;;;;;;;8.30;1.98;;;;;;;9.07;100.00;102027.41;4907584;29;20028;-79
2022/04/12 07:46:43;;;;;;;8.95;1.95;;;;;;;9.11;100.00;102020.75;4906418;29;20032;-79
2022/04/12 07:49:09;;;;;;;12.90;2.40;;;;;;;9.27;100.00;102042.31;4896363;29;20040;-79
2022/04/12 07:51:35;;;;;;;8.20;1.77;;;;;;;9.05;100.00;102021.38;4903499;29;20039;-78
2022/04/12 07:54:01;;;;;;;12.40;2.00;;;;;;;9.10;100.00;102038.69;4898641;29;20035;-79
2022/04/12 07:56:27;;;;;;;9.18;1.77;;;;;;;9.14;100.00;102044.59;4889757;29;20478;-79
2022/04/12 07:58:52;;;;;;;10.43;2.35;;;;;;;9.18;100.00;102041.44;4895031;29;20028;-78
2022/04/12 08:01:18;;;;;;;10.27;1.80;;;;;;;9.27;100.00;102050.38;4894142;29;20048;-79
2022/04/12 08:03:43;;;;;;;11.40;1.88;;;;;;;9.27;100.00;102050.38;4891896;29;20475;-78
2022/04/12 08:06:08;;;;;;;8.02;1.85;;;;;;;9.39;100.00;102051.75;4896487;29;20447;-78
2022/04/12 08:08:34;;;;;;;4.03;1.30;;;;;;;9.41;100.00;102052.47;4897432;29;20451;-79
2022/04/12 08:11:00;;;;;;;7.95;1.77;;;;;;;9.49;100.00;102050.81;4894467;29;20047;-78
2022/04/12 08:13:25;;;;;;;5.53;1.40;;;;;;;9.48;100.00;102041.91;4893142;29;20028;-79
2022/04/12 08:15:50;;;;;;;19.23;3.97;;;;;;;9.13;100.00;102016.03;4865668;29;20044;-79
2022/04/12 08:18:16;;;;;;;16.58;2.90;;;;;;;9.12;100.00;102043.91;4886414;29;20032;-79
2022/04/12 08:20:41;;;;;;;10.13;2.10;;;;;;;9.28;100.00;102045.84;4896350;29;20039;-79
2022/04/12 08:23:07;;;;;;;16.50;3.05;;;;;;;9.22;100.00;102062.59;4882044;29;20035;-78
2022/04/12 08:25:32;;;;;;;11.85;2.42;;;;;;;9.07;100.00;102039.03;4897111;29;20036;-79
2022/04/12 08:27:58;;;;;;;11.82;2.58;;;;;;;9.10;100.00;102036.00;4903196;29;20040;-79
2022/04/12 08:30:23;;;;;;;18.75;2.95;;;;;;;8.99;100.00;102038.97;4896660;29;20056;-78
2022/04/12 08:32:49;;;;;;;9.88;2.58;;;;;;;9.14;100.00;102049.97;4903662;29;20077;-79
2022/04/12 08:35:14;;;;;;;8.77;1.60;;;;;;;9.15;100.00;102025.63;4905547;29;20447;-78
2022/04/12 08:37:40;;;;;;;11.02;1.70;;;;;;;9.50;100.00;102047.09;4898399;29;20119;-78
2022/04/12 08:40:06;;;;;;;10.80;1.67;;;;;;;9.69;100.00;102057.59;4898365;29;20040;-79
2022/04/12 08:42:32;;;;;;;15.15;2.92;;;;;;;9.61;100.00;102058.41;4899840;29;20058;-79
2022/04/12 08:44:58;;;;;;;8.13;1.80;;;;;;;9.70;100.00;102055.75;4900115;29;20056;-78
2022/04/12 08:47:24;;;;;;;8.50;1.40;;;;;;;9.69;100.00;102067.50;4896127;29;20021;-78
2022/04/12 08:49:50;;;;;;;9.80;1.60;;;;;;;9.86;100.00;102062.00;4897061;29;20071;-78
2022/04/12 08:52:15;;;;;;;9.93;1.65;;;;;;;9.89;98.28;102050.94;4894690;29;20028;-78
2022/04/12 08:54:42;;;;;;;18.45;2.50;;;;;;;9.79;100.00;102061.00;4886930;29;20037;-79
2022/04/12 08:57:09;;;;;;;6.65;1.80;;;;;;;9.77;100.00;102052.25;4892628;29;20410;-78
2022/04/12 08:59:35;;;;;;;5.78;1.40;;;;;;;9.97;97.37;102057.38;4894008;29;20024;-78
2022/04/12 09:02:00;;;;;;;13.55;3.00;;;;;;;9.86;100.00;102059.31;4900467;29;20028;-78
2022/04/12 09:04:27;;;;;;;11.82;2.42;;;;;;;9.36;100.00;102032.44;4899672;29;20035;-80
2022/04/12 09:06:55;;;;;;;7.45;1.67;;;;;;;9.52;100.00;102053.16;4895246;29;20055;-79
2022/04/12 09:09:23;;;;;;;6.85;1.58;;;;;;;9.77;98.32;102043.38;4894393;29;20039;-79
2022/04/12 09:12:10;;;;;;;6.90;1.65;;;;;;;9.76;95.69;102037.13;4896378;29;20489;-81
2022/04/12 09:14:38;;;;;;;8.25;1.83;;;;;;;9.71;95.29;102042.16;4896151;29;20506;-79
2022/04/12 09:17:10;;;;;;;6.43;1.77;;;;;;;9.82;93.29;102032.94;4899612;29;20039;-79
2022/04/12 09:19:51;;;;;;;7.55;1.73;;;;;;;9.84;87.62;102042.53;4899350;29;20028;-79
2022/04/12 09:22:17;;;;;;;7.25;1.70;;;;;;;10.27;89.04;102032.56;4897050;29;20024;-79
2022/04/12 09:24:44;;;;;;;8.15;1.70;;;;;;;10.60;87.01;102031.72;4892311;29;20024;-79
2022/04/12 09:27:15;;;;;;;4.78;1.27;;;;;;;10.81;66.45;102035.56;4887281;29;20037;-79
2022/04/12 09:29:46;;;;;;;6.93;1.33;;;;;;;10.95;65.49;102038.56;4890401;29;20037;-79
2022/04/12 09:32:15;;;;;;;5.32;1.30;;;;;;;10.68;64.28;102008.31;4895781;29;20056;-78
2022/04/12 09:34:42;;;;;;;6.32;1.58;;;;;;;10.55;64.97;102034.91;4894968;29;20431;-79
2022/04/12 09:37:24;;;;;;;7.30;1.48;;;;;;;10.49;63.63;102032.88;4892390;29;20177;-78
2022/04/12 09:39:59;;;;;;;7.05;1.63;;;;;;;10.34;65.45;102032.72;4898643;29;20028;-78
2022/04/12 09:42:42;;;;;;;4.72;1.25;;;;;;;10.53;61.52;102027.03;4899707;29;20036;-79
2022/04/12 09:45:11;;;;;;;6.88;1.60;;;;;;;10.69;61.93;102030.69;4903776;29;20033;-79
2022/04/12 09:47:37;;;;;;;4.18;1.45;;;;;;;10.30;62.90;102032.22;4899095;29;20115;-79
2022/04/12 09:50:03;;;;;;;7.53;1.50;;;;;;;10.53;62.52;102031.56;4899744;29;20179;-78
2022/04/12 09:52:29;;;;;;;6.18;1.45;;;;;;;10.60;61.16;102021.81;4902644;29;20064;-79
2022/04/12 09:54:55;;;;;;;4.18;1.05;;;;;;;10.29;64.12;102027.84;4898613;29;20124;-79
2022/04/12 09:57:22;;;;;;;7.30;1.98;;;;;;;10.02;66.54;102020.06;4892691;29;20025;-79
2022/04/12 09:59:48;;;;;;;5.85;1.38;;;;;;;10.09;67.05;102023.75;4892948;29;20366;-79
2022/04/12 10:02:14;;;;;;;7.10;1.58;;;;;;;9.86;67.65;102023.53;4912616;29;20084;-80
2022/04/12 10:04:42;;;;;;;5.90;1.35;;;;;;;9.38;70.31;102023.22;4892219;29;20041;-81
2022/04/12 10:07:10;;;;;;;7.65;1.52;;;;;;;9.21;72.39;102034.06;4901871;29;20128;-80
2022/04/12 10:09:37;;;;;;;6.32;1.40;;;;;;;8.92;73.45;102022.66;4897122;29;20025;-78
2022/04/12 10:12:05;;;;;;;6.43;1.75;;;;;;;9.16;72.20;102030.00;4898764;29;20080;-78
2022/04/12 10:14:31;;;;;;;4.57;1.00;;;;;;;9.11;73.19;102018.06;4902180;29;20180;-79
2022/04/12 10:16:58;;;;;;;5.80;1.30;;;;;;;9.20;72.33;102022.44;4880382;29;20097;-79
2022/04/12 10:19:24;;;;;;;7.18;1.70;;;;;;;9.41;72.78;102030.97;4899279;29;20029;-79
2022/04/12 10:21:50;;;;;;;5.93;1.40;;;;;;;9.47;71.06;102037.53;4899405;29;20025;-78
2022/04/12 10:24:17;;;;;;;5.30;1.13;;;;;;;9.52;69.74;102026.31;4896722;29;20072;-78
2022/04/12 10:26:46;;;;;;;6.55;1.10;;;;;;;9.51;70.50;102028.16;4895719;29;20032;-78
2022/04/12 10:29:13;;;;;;;6.90;1.00;;;;;;;9.32;69.16;102025.72;4898528;29;20305;-79
2022/04/12 10:31:55;;;;;;;4.93;1.17;;;;;;;9.48;66.61;102019.56;4885696;29;20059;-79
2022/04/12 10:34:20;;;;;;;5.32;1.30;;;;;;;9.74;65.19;102012.28;4889032;29;20053;-78
2022/04/12 10:36:54;;;;;;;4.15;1.10;;;;;;;9.82;65.02;102012.28;4899184;29;20036;-78
2022/04/12 10:39:21;;;;;;;3.63;1.10;;;;;;;10.03;61.95;102010.97;4899463;29;20088;-79
2022/04/12 10:41:50;;;;;;;2.85;0.77;;;;;;;10.06;60.89;101987.28;4898829;29;20466;-78
2022/04/12 10:44:20;;;;;;;3.70;1.15;;;;;;;10.75;57.86;102003.94;4898206;29;20035;-77
2022/04/12 10:46:47;;;;;;;2.17;0.70;;;;;;;11.21;54.68;101998.75;4895704;29;20063;-78
2022/04/12 10:49:16;;;;;;;3.97;1.08;;;;;;;10.93;55.72;101998.34;4894667;29;20033;-78
2022/04/12 10:51:42;;;;;;;5.97;1.10;;;;;;;10.64;59.34;101990.00;4887343;29;20029;-77
2022/04/12 10:54:28;;;;;;;4.32;1.00;;;;;;;10.45;56.92;101980.44;4897063;29;20116;-78
2022/04/12 10:57:18;;;;;;;4.75;0.98;;;;;;;10.69;57.38;101996.53;4896225;29;20100;-77
2022/04/12 11:00:04;;;;;;;3.78;1.13;;;;;;;10.41;55.54;101987.16;4896073;29;20040;-78
2022/04/12 11:02:37;;;;;;;3.90;1.20;;;;;;;10.43;57.66;101995.88;4899816;29;20021;-78
2022/04/12 11:05:03;;;;;;;5.97;1.08;;;;;;;10.43;54.16;101993.19;4895142;29;20517;-78
2022/04/12 11:07:31;;;;;;;4.43;1.40;;;;;;;10.52;56.41;102001.09;4897464;29;20075;-78
2022/04/12 11:10:06;;;;;;;8.23;1.40;;;;;;;10.42;59.22;101996.91;4896583;29;20195;-78
2022/04/12 11:12:43;;;;;;;6.22;1.38;;;;;;;10.45;58.31;101975.03;4896474;29;20041;-78
2022/04/12 11:15:26;;;;;;;4.22;0.80;;;;;;;10.75;51.41;101987.78;4891169;29;20124;-78
2022/04/12 11:18:26;;;;;;;5.00;1.10;;;;;;;10.78;55.84;101994.69;4895803;29;20111;-79
2022/04/12 11:21:03;;;;;;;5.13;1.20;;;;;;;11.22;53.46;102000.44;4892880;29;20088;-78
2022/04/12 11:23:56;;;;;;;3.35;0.95;;;;;;;11.31;48.14;101990.47;4893832;29;20128;-78
2022/04/12 11:26:38;;;;;;;3.33;0.82;;;;;;;11.48;47.13;101980.44;4901237;29;20029;-78
2022/04/12 11:29:09;;;;;;;2.92;0.80;;;;;;;11.76;47.19;101987.03;4894658;29;20371;-78
2022/04/12 11:31:41;;;;;;;5.32;0.90;;;;;;;11.99;45.64;101976.31;4894494;29;20143;-78
2022/04/12 11:34:07;;;;;;;3.30;0.90;;;;;;;12.02;44.15;101991.31;4895465;29;20139;-78
2022/04/12 11:36:33;;;;;;;3.42;1.00;;;;;;;12.11;43.85;101987.50;4894314;29;20460;-78
2022/04/12 11:38:59;;;;;;;2.38;0.90;;;;;;;12.37;44.06;101994.38;4894080;29;20032;-78
2022/04/12 11:41:24;;;;;;;5.90;0.95;;;;;;;12.51;42.99;101993.56;4895297;29;20021;-78
2022/04/12 11:44:00;;;;;;;2.28;0.80;;;;;;;12.62;41.83;101985.03;4897386;29;20040;-78
2022/04/12 11:46:25;;;;;;;4.80;1.10;;;;;;;12.75;41.76;101988.94;4892017;29;20025;-78
2022/04/12 11:48:51;;;;;;;3.50;1.00;;;;;;;12.91;42.19;101977.97;4888569;29;20036;-79
2022/04/12 11:51:17;;;;;;;4.25;1.08;;;;;;;13.14;41.14;101986.84;4889093;29;20048;-78
2022/04/12 11:53:49;;;;;;;2.75;0.77;;;;;;;13.14;40.97;101976.06;4894725;29;20459;-78
2022/04/12 11:56:14;;;;;;;2.47;0.73;;;;;;;13.26;40.59;101989.09;4894646;29;20032;-78
2022/04/12 11:58:40;;;;;;;2.28;0.80;;;;;;;13.44;40.79;102000.34;4889865;29;20033;-78
2022/04/12 12:01:05;;;;;;;4.25;1.27;;;;;;;13.24;38.88;101986.56;4890996;29;20040;-78
2022/04/12 12:03:31;;;;;;;3.30;0.90;;;;;;;13.13;38.56;101989.72;4879733;29;20119;-78
2022/04/12 12:05:58;;;;;;;3.42;1.30;;;;;;;13.04;39.34;101991.69;4891516;29;20025;-78
2022/04/12 12:08:24;;;;;;;7.82;1.67;;;;;;;12.99;39.42;101966.25;4896318;29;20116;-78
2022/04/12 12:10:53;;;;;;;4.57;1.20;;;;;;;13.00;38.87;101993.09;4889458;29;20035;-78
2022/04/12 12:13:23;;;;;;;2.45;0.88;;;;;;;12.77;38.53;101989.63;4890659;29;20040;-78
2022/04/12 12:15:48;;;;;;;3.63;1.00;;;;;;;12.89;38.05;101990.84;4900124;29;20056;-78
2022/04/12 12:18:18;;;;;;;4.90;1.27;;;;;;;12.90;37.91;102001.47;4880992;29;20037;-78
2022/04/12 12:20:43;;;;;;;2.30;0.80;;;;;;;12.62;37.40;101987.75;4894070;29;20542;-79
2022/04/12 12:23:09;;;;;;;3.40;1.05;;;;;;;12.71;38.12;101996.59;4894260;29;20039;-78
2022/04/12 12:25:41;;;;;;;4.63;1.13;;;;;;;12.72;37.94;101995.59;4894503;29;20137;-78
2022/04/12 12:28:15;;;;;;;2.67;1.10;;;;;;;12.71;36.80;101980.38;4894937;29;20032;-79
2022/04/12 12:30:42;;;;;;;4.53;1.13;;;;;;;12.91;37.82;101978.84;4894074;29;20039;-78
2022/04/12 12:33:08;;;;;;;3.42;1.08;;;;;;;13.08;37.45;101993.00;4894033;29;20036;-78
2022/04/12 12:35:33;;;;;;;2.78;0.90;;;;;;;12.76;36.14;101988.78;4894559;29;20029;-79
2022/04/12 12:38:09;;;;;;;2.58;0.90;;;;;;;12.89;36.71;101996.25;4896053;29;20043;-78
2022/04/12 12:40:36;;;;;;;3.03;0.88;;;;;;;12.91;36.95;102003.16;4902002;29;20028;-78
2022/04/12 12:43:04;;;;;;;4.70;0.90;;;;;;;12.92;36.51;101991.31;4893680;29;20032;-79
2022/04/12 12:45:30;;;;;;;2.58;0.73;;;;;;;12.94;36.92;101977.59;4895212;29;20035;-79
2022/04/12 12:47:57;;;;;;;2.03;0.68;;;;;;;13.10;36.67;102001.75;4892983;29;20032;-78
2022/04/12 12:50:25;;;;;;;2.60;0.88;;;;;;;13.07;36.29;102002.13;4862489;29;20029;-78
2022/04/12 12:52:58;;;;;;;2.15;0.80;;;;;;;13.05;36.35;101993.38;4895417;29;20453;-78
2022/04/12 12:55:28;;;;;;;2.20;0.82;;;;;;;13.05;35.66;101987.13;4880143;29;20028;-79
2022/04/12 12:57:58;;;;;;;3.70;0.88;;;;;;;12.87;35.41;101990.19;4893919;29;20095;-78
2022/04/12 13:00:28;;;;;;;2.58;0.82;;;;;;;13.06;35.57;101994.22;4892714;29;20347;-79
2022/04/12 13:02:59;;;;;;;2.47;0.98;;;;;;;12.95;35.43;101982.00;4893483;29;20411;-78
2022/04/12 13:05:25;;;;;;;2.38;0.80;;;;;;;12.81;35.12;101970.16;4894197;29;20059;-78
2022/04/12 13:07:55;;;;;;;1.83;0.70;;;;;;;12.64;35.42;101980.28;4897506;29;20080;-77
2022/04/12 13:10:20;;;;;;;4.35;1.15;;;;;;;12.45;36.33;101975.44;4896151;29;20107;-77
2022/04/12 13:12:46;;;;;;;3.17;1.10;;;;;;;11.86;38.93;101970.66;4893343;29;20031;-78
2022/04/12 13:15:13;;;;;;;3.88;1.30;;;;;;;11.47;39.60;101954.53;4893728;29;20029;-77
2022/04/12 13:17:39;;;;;;;1.92;0.70;;;;;;;11.39;40.25;101965.34;4893762;29;20061;-78
2022/04/12 13:20:09;;;;;;;2.97;0.80;;;;;;;11.51;39.84;101951.28;4895185;29;20032;-78
2022/04/12 13:22:36;;;;;;;4.22;0.90;;;;;;;11.55;39.07;101967.94;4906845;29;20141;-79
2022/04/12 13:25:02;;;;;;;4.97;0.93;;;;;;;11.49;39.61;101963.28;4882547;29;20037;-79
2022/04/12 13:27:29;;;;;;;4.95;0.90;;;;;;;11.56;39.65;101966.94;4894789;29;20068;-80
2022/04/12 13:29:56;;;;;;;2.95;0.75;;;;;;;11.55;38.52;101954.47;4885844;29;20040;-80
2022/04/12 13:32:22;;;;;;;1.75;0.65;;;;;;;11.64;36.91;101964.19;4899300;29;20024;-78
2022/04/12 13:34:47;;;;;;;1.63;0.60;;;;;;;11.98;36.43;101965.69;4897771;29;20080;-80
2022/04/12 13:37:13;;;;;;;1.27;0.50;;;;;;;12.22;35.60;101957.41;4896240;29;20906;-80
2022/04/12 13:39:39;;;;;;;1.38;0.50;;;;;;;12.34;35.83;101957.78;4898010;29;20049;-80
2022/04/12 13:42:05;;;;;;;3.30;0.80;;;;;;;12.33;35.28;101950.72;4894392;29;20043;-80
2022/04/12 13:44:35;;;;;;;2.67;0.73;;;;;;;12.49;35.34;101948.91;4892182;29;20386;-80
2022/04/12 13:47:02;;;;;;;3.00;0.80;;;;;;;12.54;35.77;101955.41;4898024;29;20119;-80
2022/04/12 13:49:29;;;;;;;2.13;0.70;;;;;;;12.37;35.25;101946.63;4902082;29;20539;-79
2022/04/12 13:51:56;;;;;;;1.80;0.55;;;;;;;12.34;35.79;101935.38;4900001;29;20060;-79
2022/04/12 13:54:22;;;;;;;1.42;0.60;;;;;;;12.56;36.35;101947.97;4895748;29;20099;-80
2022/04/12 13:56:47;;;;;;;1.00;0.55;;;;;;;12.48;35.88;101934.53;4896654;29;20032;-80